Time;durP1;ratioP1;P1;durP2;ratioP2;P2;SDS_P1;SDS_P2;PMS_P1;PMS_P2;Temp;Humidity;BMP_temperature;BMP_pressure;BME280_temperature;BME280_humidity;BME280_pressure;Samples;Min_cycle;Max_cycle;Signal;HPM_P1;HPM_P2
2022/12/01 00:02:24;;;;;;;108.75;37.60;;;;;;;7.36;54.50;102492.63;4921288;28;97933;-66
2022/12/01 00:04:54;;;;;;;114.50;36.70;;;;;;;7.33;54.78;102487.34;4925561;28;99471;-67
2022/12/01 00:07:21;;;;;;;107.57;37.33;;;;;;;7.44;54.64;102488.28;4928447;28;101148;-67
2022/12/01 00:12:32;;;;;;;101.50;36.35;;;;;;;7.06;55.41;102493.31;4926740;28;96823;-66
2022/12/01 00:14:59;;;;;;;115.78;36.33;;;;;;;7.21;55.06;102492.56;4931714;28;101561;-65
2022/12/01 00:17:27;;;;;;;112.78;38.20;;;;;;;7.51;54.78;102481.31;4931476;28;100597;-67
2022/12/01 00:19:55;;;;;;;111.35;37.13;;;;;;;7.77;54.03;102484.03;4931773;28;96771;-67
2022/12/01 00:22:22;;;;;;;120.10;39.08;;;;;;;7.48;54.50;102490.03;4923383;28;97614;-65
2022/12/01 00:24:48;;;;;;;105.18;35.33;;;;;;;7.78;53.21;102483.16;4922882;28;99053;-66
2022/12/01 00:27:15;;;;;;;96.97;33.55;;;;;;;7.88;52.72;102480.56;4929494;28;98933;-66
2022/12/01 00:29:42;;;;;;;101.35;35.85;;;;;;;7.73;53.08;102483.16;4931495;28;98415;-66
2022/12/01 00:32:08;;;;;;;100.63;34.40;;;;;;;7.48;53.35;102492.69;4924933;28;97184;-66
2022/12/01 00:34:36;;;;;;;102.45;35.13;;;;;;;7.30;54.02;102492.59;4922464;28;98899;-66
2022/12/01 00:37:04;;;;;;;97.70;33.35;;;;;;;7.44;53.80;102490.91;4925368;28;98789;-65
2022/12/01 00:39:31;;;;;;;86.50;32.00;;;;;;;7.45;53.43;102492.69;4929355;28;97530;-67
2022/12/01 00:41:58;;;;;;;89.28;32.42;;;;;;;7.33;53.42;102489.09;4930872;28;97517;-66
2022/12/01 00:44:24;;;;;;;92.68;33.55;;;;;;;7.39;53.31;102487.38;4929824;28;99104;-66
2022/12/01 00:46:51;;;;;;;88.25;33.38;;;;;;;7.48;53.29;102490.03;4928834;28;99198;-66
2022/12/01 00:49:18;;;;;;;97.13;33.70;;;;;;;7.30;53.94;102492.59;4928072;28;96977;-65
2022/12/01 00:51:44;;;;;;;98.90;33.20;;;;;;;7.44;53.95;102492.66;4931714;28;99297;-65
2022/12/01 00:54:12;;;;;;;95.80;32.70;;;;;;;7.18;54.21;102493.41;4925808;28;99301;-66
2022/12/01 00:56:41;;;;;;;84.30;30.13;;;;;;;7.27;54.20;102505.72;4929021;28;98941;-65
2022/12/01 00:59:08;;;;;;;92.82;31.88;;;;;;;7.17;54.34;102498.66;4932778;28;98661;-66
2022/12/01 01:01:34;;;;;;;84.55;31.85;;;;;;;7.39;53.61;102505.78;4926018;28;97783;-66
2022/12/01 01:04:01;;;;;;;85.30;32.83;;;;;;;7.17;53.70;102503.91;4932638;28;100502;-66
2022/12/01 01:06:31;;;;;;;88.85;32.20;;;;;;;7.16;54.20;102500.38;4927737;28;98839;-67
2022/12/01 01:08:57;;;;;;;89.05;32.97;;;;;;;6.75;55.03;102504.50;4929209;28;98670;-65
2022/12/01 01:11:25;;;;;;;95.13;33.75;;;;;;;6.93;55.06;102509.88;4926497;28;98763;-65
2022/12/01 01:13:52;;;;;;;88.57;32.92;;;;;;;7.09;54.55;102516.09;4930811;28;99209;-68
2022/12/01 01:16:20;;;;;;;91.18;33.92;;;;;;;7.09;54.74;102516.09;4928429;28;99080;-65
2022/12/01 01:18:47;;;;;;;93.10;34.05;;;;;;;7.30;54.06;102518.88;4932155;28;96914;-66
2022/12/01 01:21:18;;;;;;;105.57;34.97;;;;;;;7.25;54.03;102512.72;4926572;28;97187;-66
2022/12/01 01:23:45;;;;;;;108.00;35.72;;;;;;;7.34;53.83;102517.16;4929976;28;98959;-65
2022/12/01 01:26:14;;;;;;;99.55;35.63;;;;;;;7.42;53.56;102505.78;4932791;28;99171;-66
2022/12/01 01:28:42;;;;;;;97.57;36.10;;;;;;;7.47;53.60;102514.63;4928501;28;96844;-66
2022/12/01 01:31:10;;;;;;;98.38;34.22;;;;;;;7.14;54.26;102517.94;4923767;28;96843;-66
2022/12/01 01:33:37;;;;;;;101.22;36.55;;;;;;;7.28;54.29;102510.13;4929625;28;99288;-65
2022/12/01 01:36:04;;;;;;;102.18;35.13;;;;;;;7.23;54.22;102519.72;4922258;28;98842;-68
2022/12/01 01:38:33;;;;;;;98.30;36.05;;;;;;;7.12;54.37;102513.50;4928284;28;98449;-67
2022/12/01 01:40:59;;;;;;;100.80;34.80;;;;;;;7.18;54.51;102509.19;4925567;28;96970;-67
2022/12/01 01:43:45;;;;;;;98.85;35.20;;;;;;;7.07;54.72;102509.97;4922229;28;98900;-66
2022/12/01 01:46:14;;;;;;;106.75;33.63;;;;;;;6.84;55.15;102504.53;4922440;28;99565;-66
2022/12/01 01:48:45;;;;;;;108.22;35.63;;;;;;;6.94;55.11;102508.13;4926117;28;96928;-66
2022/12/01 01:51:13;;;;;;;107.95;34.97;;;;;;;7.00;54.84;102513.44;4919796;28;97043;-67
2022/12/01 01:53:40;;;;;;;101.68;33.75;;;;;;;7.40;54.18;102514.56;4922355;28;99320;-67
2022/12/01 01:56:08;;;;;;;96.75;33.55;;;;;;;7.49;53.60;102510.22;4921142;28;97803;-66
2022/12/01 01:58:39;;;;;;;93.75;32.13;;;;;;;7.57;53.46;102505.88;4925059;28;97231;-67
2022/12/01 02:01:07;;;;;;;94.78;33.38;;;;;;;7.42;53.59;102505.78;4927955;28;96831;-66
2022/12/01 02:03:36;;;;;;;108.82;36.00;;;;;;;7.55;53.34;102506.75;4926423;28;98175;-65
2022/12/01 02:06:04;;;;;;;108.15;36.72;;;;;;;7.66;52.98;102498.91;4921769;28;99349;-66
2022/12/01 02:08:34;;;;;;;100.30;32.45;;;;;;;7.45;53.43;102500.56;4925304;28;96881;-65
2022/12/01 02:11:20;;;;;;;97.70;33.13;;;;;;;7.44;53.52;102501.44;4923296;28;96932;-65
2022/12/01 02:13:55;;;;;;;108.05;35.47;;;;;;;7.33;53.53;102497.00;4923008;28;98236;-66
2022/12/01 02:16:32;;;;;;;103.45;34.30;;;;;;;7.25;54.14;102496.06;4930666;28;99151;-65
2022/12/01 02:19:21;;;;;;;97.97;33.33;;;;;;;7.33;53.59;102492.63;4920225;28;97878;-66
2022/12/01 02:22:07;;;;;;;109.35;34.75;;;;;;;7.45;53.58;102487.41;4930042;28;96911;-67
2022/12/01 02:25:12;;;;;;;97.43;33.30;;;;;;;7.35;53.72;102488.22;4930363;28;99274;-66
2022/12/01 02:28:01;;;;;;;100.85;32.95;;;;;;;7.25;54.03;102491.69;4917963;28;99346;-67
2022/12/01 02:30:39;;;;;;;96.88;32.80;;;;;;;7.09;54.88;102488.06;4921277;28;98689;-67
2022/12/01 02:33:13;;;;;;;108.88;33.17;;;;;;;7.13;54.04;102486.38;4928734;28;99160;-66
2022/12/01 02:35:48;;;;;;;100.35;34.95;;;;;;;7.00;55.07;102485.41;4929370;28;101446;-69
2022/12/01 02:38:25;;;;;;;99.93;33.70;;;;;;;7.25;54.90;102491.69;4930218;28;98831;-65
2022/12/01 02:41:00;;;;;;;106.05;33.95;;;;;;;7.24;54.54;102489.94;4923188;28;97011;-69
2022/12/01 02:43:32;;;;;;;108.13;34.83;;;;;;;7.16;54.63;102487.25;4922514;28;99145;-68
2022/12/01 02:46:08;;;;;;;112.60;34.53;;;;;;;7.57;53.99;102490.09;4926175;28;98996;-66
2022/12/01 02:48:37;;;;;;;100.65;34.10;;;;;;;7.81;53.25;102478.78;4923981;28;98829;-65
2022/12/01 02:51:10;;;;;;;107.13;34.72;;;;;;;7.68;53.12;102486.66;4930489;28;98812;-67
2022/12/01 02:53:37;;;;;;;105.50;35.20;;;;;;;7.50;53.39;102477.78;4924851;28;96824;-67
2022/12/01 02:56:07;;;;;;;109.78;36.20;;;;;;;7.50;53.57;102476.91;4928089;28;99332;-65
2022/12/01 02:58:34;;;;;;;107.68;35.88;;;;;;;7.45;53.70;102476.91;4924242;28;99301;-66
2022/12/01 03:01:31;;;;;;;107.68;35.65;;;;;;;7.57;53.09;102473.44;4928512;28;98059;-69
2022/12/01 03:04:08;;;;;;;105.40;34.92;;;;;;;7.53;53.23;102483.09;4930503;28;96688;-66
2022/12/01 03:06:45;;;;;;;122.15;39.15;;;;;;;7.40;53.68;102486.53;4929210;28;97766;-66
2022/12/01 03:09:23;;;;;;;120.70;38.33;;;;;;;7.31;53.96;102483.84;4931738;28;98951;-67
2022/12/01 03:11:58;;;;;;;117.28;38.78;;;;;;;7.41;53.96;102493.53;4931084;28;96806;-67
2022/12/01 03:14:38;;;;;;;123.65;39.03;;;;;;;7.30;54.11;102483.81;4932399;28;96903;-66
2022/12/01 03:17:10;;;;;;;120.15;35.88;;;;;;;7.18;54.53;102490.78;4932757;28;102223;-66
2022/12/01 03:19:41;;;;;;;130.88;39.38;;;;;;;7.38;53.61;102477.72;4932236;28;99553;-66
2022/12/01 03:22:11;;;;;;;115.93;37.67;;;;;;;7.31;54.03;102488.22;4929610;28;96866;-65
2022/12/01 03:24:40;;;;;;;116.07;38.15;;;;;;;7.14;54.54;102488.13;4930301;28;96867;-67
2022/12/01 03:27:09;;;;;;;117.65;36.33;;;;;;;7.01;54.48;102487.16;4931109;28;98876;-67
2022/12/01 03:29:40;;;;;;;114.63;37.50;;;;;;;7.05;54.38;102485.44;4929261;28;98909;-67
2022/12/01 03:32:13;;;;;;;117.15;36.30;;;;;;;7.26;54.17;102488.19;4928188;28;96839;-66
2022/12/01 03:34:45;;;;;;;117.15;37.28;;;;;;;7.09;54.66;102489.81;4929843;28;99105;-66
2022/12/01 03:37:17;;;;;;;124.30;38.83;;;;;;;7.05;54.33;102482.78;4932383;28;98914;-66
2022/12/01 03:39:47;;;;;;;111.78;36.38;;;;;;;6.90;54.95;102483.56;4928841;28;98990;-67
2022/12/01 03:42:18;;;;;;;139.95;38.95;;;;;;;7.14;54.50;102488.13;4930205;28;96859;-65
2022/12/01 03:44:48;;;;;;;128.68;38.58;;;;;;;7.17;54.47;102489.00;4931758;28;97854;-66
2022/12/01 03:47:20;;;;;;;122.32;37.65;;;;;;;6.92;54.87;102492.34;4927828;28;99231;-65
2022/12/01 03:49:50;;;;;;;116.53;35.42;;;;;;;7.12;54.29;102489.84;4931196;28;99110;-65
2022/12/01 03:52:27;;;;;;;129.55;39.42;;;;;;;6.96;54.87;102491.50;4933673;28;98745;-66
2022/12/01 03:55:04;;;;;;;125.13;39.88;;;;;;;6.76;55.71;102493.97;4928097;28;96780;-66
2022/12/01 03:57:35;;;;;;;124.32;37.92;;;;;;;6.77;55.27;102493.09;4930355;28;102085;-66
2022/12/01 04:00:03;;;;;;;123.68;39.65;;;;;;;7.08;54.88;102495.97;4930020;28;101145;-67
2022/12/01 04:02:31;;;;;;;127.75;40.88;;;;;;;7.18;54.30;102495.16;4929275;28;97086;-66
2022/12/01 04:05:00;;;;;;;130.35;41.72;;;;;;;6.97;54.82;102505.50;4930089;28;96853;-65
2022/12/01 04:07:27;;;;;;;133.25;40.40;;;;;;;6.89;55.51;102496.72;4927896;28;99503;-66
2022/12/01 04:09:53;;;;;;;126.80;40.10;;;;;;;7.13;54.54;102499.50;4931995;28;98775;-67
2022/12/01 04:12:28;;;;;;;125.85;39.03;;;;;;;7.09;54.60;102508.22;4932433;28;96888;-66
2022/12/01 04:14:55;;;;;;;124.32;39.60;;;;;;;7.22;54.12;102502.16;4928851;28;96822;-67
2022/12/01 04:17:22;;;;;;;128.70;40.40;;;;;;;7.06;54.67;102508.22;4928238;28;98889;-66
2022/12/01 04:19:50;;;;;;;125.15;38.75;;;;;;;7.22;54.11;102504.81;4929089;28;99894;-66
2022/12/01 04:22:16;;;;;;;127.65;40.60;;;;;;;7.13;54.52;102507.41;4925355;28;97043;-65
2022/12/01 04:24:43;;;;;;;125.15;41.10;;;;;;;6.98;54.73;102512.53;4922875;28;96796;-68
2022/12/01 04:27:11;;;;;;;127.32;41.55;;;;;;;6.98;54.83;102496.75;4928854;28;99283;-66
2022/12/01 04:29:38;;;;;;;129.35;40.72;;;;;;;6.79;55.40;102496.63;4925889;28;99130;-66
2022/12/01 04:32:04;;;;;;;123.20;39.97;;;;;;;6.71;55.90;102503.56;4918788;28;96872;-65
2022/12/01 04:34:31;;;;;;;125.95;41.17;;;;;;;6.87;55.34;102506.31;4923765;28;96902;-67
2022/12/01 04:36:59;;;;;;;131.95;42.13;;;;;;;6.99;55.38;102509.94;4928857;28;99300;-66
2022/12/01 04:39:26;;;;;;;125.40;40.35;;;;;;;7.12;54.62;102500.38;4934487;28;98765;-66
2022/12/01 04:41:52;;;;;;;135.73;41.03;;;;;;;6.99;54.64;102504.66;4923166;28;98847;-66
2022/12/01 04:44:19;;;;;;;127.10;39.95;;;;;;;7.00;54.61;102516.06;4930725;28;96887;-65
2022/12/01 04:46:45;;;;;;;131.15;42.47;;;;;;;7.08;54.73;102517.00;4924756;28;99149;-67
2022/12/01 04:49:12;;;;;;;138.63;41.70;;;;;;;7.22;54.06;102504.81;4925113;28;98911;-65
2022/12/01 04:51:38;;;;;;;128.77;39.33;;;;;;;7.30;53.88;102513.63;4929289;28;96848;-67
2022/12/01 04:54:06;;;;;;;126.90;40.65;;;;;;;7.35;53.82;102511.03;4924514;28;97367;-66
2022/12/01 04:56:33;;;;;;;127.53;41.13;;;;;;;7.12;53.98;102517.03;4927627;28;98983;-66
2022/12/01 04:59:00;;;;;;;124.07;40.95;;;;;;;7.18;54.08;102517.06;4932209;28;101069;-66
2022/12/01 05:01:26;;;;;;;125.93;40.38;;;;;;;7.16;53.78;102528.44;4920356;28;96849;-66
2022/12/01 05:03:56;;;;;;;123.57;40.95;;;;;;;7.04;53.98;102523.09;4926162;28;96869;-66
2022/12/01 05:06:25;;;;;;;122.45;39.55;;;;;;;6.84;54.83;102529.94;4930095;28;99264;-66
2022/12/01 05:08:55;;;;;;;127.40;41.15;;;;;;;7.04;54.37;102523.97;4929117;28;98972;-65
2022/12/01 05:11:23;;;;;;;129.65;41.15;;;;;;;7.04;54.00;102523.09;4930081;28;96808;-65
2022/12/01 05:13:50;;;;;;;126.88;40.92;;;;;;;7.20;53.50;102527.59;4924334;28;96813;-66
2022/12/01 05:16:19;;;;;;;131.20;41.72;;;;;;;7.10;53.73;102525.75;4924666;28;97711;-65
2022/12/01 05:18:48;;;;;;;119.75;39.38;;;;;;;7.13;53.55;102517.91;4930989;28;99264;-66
2022/12/01 05:21:14;;;;;;;125.78;41.28;;;;;;;7.11;53.23;102525.78;4929516;28;97222;-66
2022/12/01 05:23:41;;;;;;;;;;;;;;;7.22;53.22;102525.00;4922800;28;99202;-66
2022/12/01 05:26:09;;;;;;;112.55;38.28;;;;;;;7.16;53.40;102528.44;4927085;28;99987;-65
2022/12/01 05:28:37;;;;;;;118.32;37.67;;;;;;;7.08;53.50;102527.53;4925810;28;99585;-66
2022/12/01 05:31:05;;;;;;;107.22;38.63;;;;;;;7.19;53.07;102525.84;4929238;28;96917;-65
2022/12/01 05:33:32;;;;;;;117.38;41.25;;;;;;;6.94;53.35;102523.91;4930303;28;97159;-65
2022/12/01 05:35:58;;;;;;;110.43;39.08;;;;;;;7.00;53.50;102531.84;4926528;28;100598;-65
2022/12/01 05:38:25;;;;;;;118.82;40.15;;;;;;;7.12;53.26;102526.66;4930839;28;98944;-66
2022/12/01 05:40:52;;;;;;;112.07;39.97;;;;;;;7.02;53.53;102535.38;4930458;28;96800;-65
2022/12/01 05:43:19;;;;;;;116.97;41.35;;;;;;;6.94;53.53;102537.94;4923865;28;96858;-65
2022/12/01 05:45:48;;;;;;;116.15;40.03;;;;;;;6.97;53.73;102535.31;4929206;28;98984;-68
2022/12/01 05:48:15;;;;;;;112.72;39.15;;;;;;;6.85;53.70;102532.59;4928011;28;98824;-65
2022/12/01 05:50:42;;;;;;;117.60;40.25;;;;;;;6.89;53.95;102542.28;4928389;28;96777;-67
2022/12/01 05:53:11;;;;;;;119.22;41.33;;;;;;;6.84;54.04;102540.44;4929213;28;96943;-66
2022/12/01 05:55:37;;;;;;;120.93;42.53;;;;;;;6.95;53.97;102544.06;4931621;28;100487;-66
2022/12/01 05:58:03;;;;;;;114.32;41.08;;;;;;;7.03;53.38;102537.09;4926040;28;98798;-66
2022/12/01 06:00:30;;;;;;;119.78;41.83;;;;;;;7.19;53.35;102546.88;4922489;28;97179;-65
2022/12/01 06:02:58;;;;;;;122.65;42.58;;;;;;;7.00;53.66;102542.34;4928010;28;98852;-65
2022/12/01 06:05:25;;;;;;;123.22;41.63;;;;;;;7.09;53.61;102542.41;4930494;28;98870;-67
2022/12/01 06:07:52;;;;;;;112.07;41.15;;;;;;;7.06;53.09;102537.13;4924328;28;99270;-66
2022/12/01 06:10:18;;;;;;;114.95;40.28;;;;;;;7.07;53.04;102538.91;4926735;28;96860;-66
2022/12/01 06:12:45;;;;;;;117.35;42.13;;;;;;;7.15;53.02;102540.69;4925608;28;97080;-67
2022/12/01 06:15:12;;;;;;;113.05;41.33;;;;;;;6.93;53.33;102543.16;4921310;28;98416;-67
2022/12/01 06:17:38;;;;;;;119.35;43.08;;;;;;;6.69;53.92;102547.34;4923959;28;98583;-66
2022/12/01 06:20:08;;;;;;;103.93;40.22;;;;;;;6.77;53.95;102531.63;4917544;28;97245;-66
2022/12/01 06:22:35;;;;;;;113.68;42.50;;;;;;;6.91;53.66;102548.41;4923429;28;96844;-66
2022/12/01 06:25:02;;;;;;;119.30;44.20;;;;;;;6.77;53.46;102545.66;4928488;28;100178;-66
2022/12/01 06:27:28;;;;;;;114.57;42.72;;;;;;;6.68;53.51;102545.59;4924764;28;98173;-67
2022/12/01 06:29:55;;;;;;;111.22;42.13;;;;;;;6.67;54.10;102550.81;4926198;28;97507;-66
2022/12/01 06:32:21;;;;;;;118.93;42.05;;;;;;;6.71;53.52;102550.84;4919356;28;96866;-66
2022/12/01 06:34:48;;;;;;;111.25;41.50;;;;;;;6.61;53.45;102543.78;4928157;28;99045;-66
2022/12/01 06:37:15;;;;;;;109.47;40.38;;;;;;;6.31;54.50;102552.22;4927366;28;98856;-67
2022/12/01 06:39:42;;;;;;;119.40;43.10;;;;;;;6.54;54.21;102554.19;4928810;28;98973;-65
2022/12/01 06:42:09;;;;;;;104.50;41.03;;;;;;;6.77;53.94;102556.16;4929503;28;96913;-66
2022/12/01 06:44:35;;;;;;;107.60;40.05;;;;;;;6.80;53.43;102564.09;4926366;28;99242;-66
2022/12/01 06:47:02;;;;;;;99.85;40.47;;;;;;;7.08;52.79;102561.69;4927444;28;101098;-65
2022/12/01 06:49:29;;;;;;;105.45;39.72;;;;;;;6.89;52.95;102565.03;4924785;28;96766;-65
2022/12/01 06:51:55;;;;;;;106.55;40.20;;;;;;;7.02;53.35;102566.91;4929698;28;97056;-69
2022/12/01 06:54:23;;;;;;;100.40;38.38;;;;;;;6.99;52.98;102562.50;4927522;28;99293;-69
2022/12/01 06:56:50;;;;;;;111.00;41.20;;;;;;;7.05;52.79;102567.78;4931723;28;98808;-71
2022/12/01 06:59:16;;;;;;;118.13;42.25;;;;;;;7.12;52.26;102566.97;4928016;28;96822;-71
2022/12/01 07:01:43;;;;;;;106.90;41.08;;;;;;;6.97;53.06;102568.59;4931738;28;97232;-70
2022/12/01 07:04:09;;;;;;;111.75;42.08;;;;;;;7.14;52.72;102569.63;4927314;28;98888;-72
2022/12/01 07:06:38;;;;;;;114.22;44.38;;;;;;;7.23;52.22;102569.66;4934327;28;100852;-69
2022/12/01 07:09:05;;;;;;;118.63;43.67;;;;;;;7.08;52.57;102570.47;4932728;28;97025;-71
2022/12/01 07:11:35;;;;;;;109.28;42.15;;;;;;;7.20;52.40;102567.03;4929061;28;97036;-69
2022/12/01 07:14:02;;;;;;;113.40;41.10;;;;;;;7.19;52.36;102565.28;4928810;28;99175;-70
2022/12/01 07:16:28;;;;;;;120.28;42.72;;;;;;;7.08;52.34;102564.31;4934004;28;99608;-70
2022/12/01 07:18:55;;;;;;;112.25;42.05;;;;;;;7.09;52.67;102566.06;4930676;28;97078;-70
2022/12/01 07:21:23;;;;;;;124.03;43.03;;;;;;;7.15;52.33;102563.50;4932182;28;96989;-71
2022/12/01 07:23:50;;;;;;;113.82;43.63;;;;;;;7.12;52.11;102566.09;4929336;28;98912;-70
2022/12/01 07:26:18;;;;;;;132.63;45.67;;;;;;;7.07;52.42;102562.56;4931016;28;99108;-71
2022/12/01 07:28:46;;;;;;;113.15;43.17;;;;;;;7.00;52.89;102571.25;4932095;28;96944;-70
2022/12/01 07:31:15;;;;;;;128.18;47.33;;;;;;;6.92;52.94;102571.19;4933888;28;98407;-71
2022/12/01 07:33:42;;;;;;;126.50;45.78;;;;;;;6.98;52.81;102570.34;4933541;28;100106;-70
2022/12/01 07:36:15;;;;;;;138.07;47.90;;;;;;;7.11;52.43;102577.47;4931506;28;99201;-69
2022/12/01 07:38:42;;;;;;;127.20;46.47;;;;;;;7.11;52.86;102577.47;4932304;28;98740;-69
2022/12/01 07:41:11;;;;;;;141.55;48.42;;;;;;;7.32;52.28;102577.63;4929748;28;96936;-70
2022/12/01 07:43:39;;;;;;;137.70;47.05;;;;;;;7.29;52.35;102582.84;4933041;28;97650;-72
2022/12/01 07:46:08;;;;;;;142.57;50.85;;;;;;;7.25;52.33;102586.34;4929389;28;99052;-71
2022/12/01 07:48:36;;;;;;;134.23;48.30;;;;;;;7.22;52.37;102584.56;4925344;28;97098;-70
2022/12/01 07:51:06;;;;;;;136.63;48.75;;;;;;;7.42;51.68;102584.69;4926737;28;97087;-71
2022/12/01 07:53:33;;;;;;;139.70;51.45;;;;;;;7.16;52.21;102581.00;4923728;28;99545;-71
2022/12/01 07:56:00;;;;;;;149.98;51.53;;;;;;;7.30;51.97;102584.63;4929426;28;98353;-71
2022/12/01 07:58:27;;;;;;;142.85;50.45;;;;;;;7.33;51.82;102589.03;4930604;28;97317;-70
2022/12/01 08:00:54;;;;;;;151.15;50.25;;;;;;;7.49;52.11;102583.88;4929413;28;98751;-72
2022/12/01 08:03:22;;;;;;;138.88;49.13;;;;;;;7.51;51.57;102584.78;4929962;28;100563;-72
2022/12/01 08:05:56;;;;;;;138.88;51.17;;;;;;;7.41;51.61;102588.22;4920585;28;99870;-72
2022/12/01 08:08:23;;;;;;;154.32;52.30;;;;;;;7.36;51.76;102589.91;4923041;28;97007;-71
2022/12/01 08:10:50;;;;;;;146.00;50.90;;;;;;;7.45;51.30;102595.25;4924318;28;96991;-72
2022/12/01 08:13:16;;;;;;;154.52;52.53;;;;;;;7.19;51.93;102587.19;4921374;28;99105;-70
2022/12/01 08:15:43;;;;;;;163.05;54.92;;;;;;;7.22;51.87;102595.97;4918814;28;99009;-70
2022/12/01 08:18:09;;;;;;;152.07;53.75;;;;;;;7.27;51.66;102595.13;4921825;28;97297;-70
2022/12/01 08:20:45;;;;;;;172.10;56.30;;;;;;;7.32;51.74;102598.69;4920415;28;96973;-70
2022/12/01 08:23:12;;;;;;;157.48;54.72;;;;;;;7.65;50.99;102592.75;4921943;28;101915;-72
2022/12/01 08:25:41;;;;;;;183.35;55.40;;;;;;;7.35;51.62;102593.41;4919166;28;99068;-73
2022/12/01 08:28:08;;;;;;;175.07;56.35;;;;;;;7.34;51.62;102599.56;4921770;28;97424;-72
2022/12/01 08:30:36;;;;;;;168.43;56.72;;;;;;;7.57;51.06;102604.97;4922531;28;97654;-72
2022/12/01 08:33:02;;;;;;;164.55;57.47;;;;;;;7.56;50.82;102601.47;4925006;28;99400;-72
2022/12/01 08:35:29;;;;;;;161.70;56.35;;;;;;;7.46;50.71;102594.41;4919925;28;99299;-72
2022/12/01 08:37:56;;;;;;;167.40;55.63;;;;;;;7.39;51.25;102599.59;4923674;28;97160;-72
2022/12/01 08:40:26;;;;;;;163.00;53.28;;;;;;;7.56;50.92;102605.84;4928963;28;98149;-72
2022/12/01 08:42:53;;;;;;;158.85;54.40;;;;;;;7.31;51.38;102596.03;4925435;28;97871;-72
2022/12/01 08:45:21;;;;;;;159.95;55.72;;;;;;;7.45;51.26;102603.16;4917432;28;99317;-71
2022/12/01 08:47:48;;;;;;;153.88;51.38;;;;;;;7.44;51.13;102600.50;4916685;28;97133;-70
2022/12/01 08:50:15;;;;;;;157.63;53.10;;;;;;;7.37;51.21;102593.44;4919032;28;98210;-70
2022/12/01 08:52:42;;;;;;;152.68;50.00;;;;;;;7.40;50.95;102597.00;4920075;28;98973;-73
2022/12/01 08:55:10;;;;;;;141.00;50.47;;;;;;;7.64;51.00;102603.25;4924827;28;99291;-70
2022/12/01 08:57:36;;;;;;;148.48;51.13;;;;;;;7.78;50.12;102591.06;4924468;28;99541;-71
2022/12/01 09:00:03;;;;;;;152.90;52.40;;;;;;;8.06;49.61;102605.25;4924717;28;96854;-70
2022/12/01 09:02:30;;;;;;;159.88;53.33;;;;;;;7.91;49.57;102601.66;4912335;28;99064;-71
2022/12/01 09:04:56;;;;;;;148.43;51.92;;;;;;;7.77;49.83;102602.47;4919219;28;98900;-72
2022/12/01 09:07:22;;;;;;;161.05;53.40;;;;;;;7.78;49.73;102606.84;4929476;28;97197;-70
2022/12/01 09:09:52;;;;;;;159.05;56.22;;;;;;;7.94;49.77;102603.44;4930855;28;96852;-72
2022/12/01 09:12:21;;;;;;;159.52;53.53;;;;;;;7.78;50.26;102606.84;4928978;28;99429;-71
2022/12/01 09:14:48;;;;;;;146.10;51.70;;;;;;;7.88;49.99;102612.16;4922445;28;98641;-72
2022/12/01 09:17:15;;;;;;;155.25;54.40;;;;;;;7.82;49.72;102612.13;4927302;28;98672;-71
2022/12/01 09:19:41;;;;;;;166.15;55.50;;;;;;;7.83;49.58;102607.75;4927205;28;97672;-70
2022/12/01 09:22:08;;;;;;;161.75;54.70;;;;;;;7.94;49.40;102604.28;4926029;28;101102;-70
2022/12/01 09:24:35;;;;;;;159.85;56.83;;;;;;;7.74;49.80;102613.00;4924456;28;99486;-72
2022/12/01 09:27:02;;;;;;;161.02;55.72;;;;;;;7.68;49.88;102612.94;4931624;28;97032;-73
2022/12/01 09:29:30;;;;;;;160.98;56.10;;;;;;;7.39;50.32;102602.22;4930956;28;97281;-72
2022/12/01 09:31:58;;;;;;;166.48;55.72;;;;;;;7.38;50.35;102603.09;4930950;28;99094;-72
2022/12/01 09:34:26;;;;;;;167.95;57.70;;;;;;;7.47;50.44;102600.53;4928480;28;100290;-72
2022/12/01 09:36:55;;;;;;;163.60;56.28;;;;;;;7.43;50.84;102596.09;4924719;28;97317;-72
2022/12/01 09:39:22;;;;;;;170.32;57.63;;;;;;;7.41;50.67;102600.50;4929546;28;97458;-72
2022/12/01 09:41:55;;;;;;;175.18;58.88;;;;;;;7.70;50.01;102604.19;4931332;28;99041;-72
2022/12/01 09:44:34;;;;;;;169.95;58.10;;;;;;;7.78;49.98;102598.97;4927675;28;98347;-71
2022/12/01 09:47:13;;;;;;;170.85;57.58;;;;;;;7.52;50.34;102591.81;4928893;28;97679;-72
2022/12/01 09:49:46;;;;;;;166.23;56.80;;;;;;;7.65;50.33;102597.13;4928373;28;97449;-71
2022/12/01 09:52:15;;;;;;;173.77;56.95;;;;;;;7.87;50.17;102605.16;4927717;28;97898;-74
2022/12/01 09:54:42;;;;;;;161.75;58.33;;;;;;;7.98;49.65;102602.56;4928024;28;98760;-70
2022/12/01 09:57:17;;;;;;;152.13;52.75;;;;;;;7.94;49.71;102598.19;4928943;28;96886;-73
2022/12/01 09:59:46;;;;;;;149.88;51.17;;;;;;;7.99;49.08;102591.19;4923548;28;96752;-72
2022/12/01 10:02:26;;;;;;;153.57;53.53;;;;;;;7.87;49.20;102589.38;4926575;28;98572;-73
2022/12/01 10:04:55;;;;;;;151.45;52.35;;;;;;;7.85;49.05;102595.50;4926508;28;98901;-72
2022/12/01 10:07:25;;;;;;;145.27;52.78;;;;;;;8.12;48.91;102587.72;4927671;28;97342;-71
2022/12/01 10:09:58;;;;;;;143.85;52.00;;;;;;;8.04;48.73;102592.06;4929396;28;98850;-72
2022/12/01 10:12:29;;;;;;;137.32;49.55;;;;;;;7.74;49.30;102589.31;4928388;28;99041;-71
2022/12/01 10:15:10;;;;;;;135.52;51.08;;;;;;;7.75;48.95;102585.78;4928476;28;99182;-70
2022/12/01 10:17:45;;;;;;;149.68;51.67;;;;;;;7.82;48.90;102590.19;4930378;28;97489;-71
2022/12/01 10:20:16;;;;;;;130.57;48.47;;;;;;;7.70;49.11;102585.75;4929769;28;97111;-71
2022/12/01 10:23:09;;;;;;;127.10;48.67;;;;;;;7.75;49.02;102584.03;4926335;28;98236;-70
2022/12/01 10:25:43;;;;;;;134.90;50.80;;;;;;;7.76;49.06;102577.00;4924608;28;99302;-71
2022/12/01 10:28:31;;;;;;;136.00;49.60;;;;;;;7.91;48.98;102575.34;4920216;28;97212;-73
2022/12/01 10:31:06;;;;;;;142.23;50.30;;;;;;;8.02;48.71;102572.75;4923029;28;97354;-71
2022/12/01 10:33:40;;;;;;;125.50;49.03;;;;;;;7.75;49.29;102575.25;4925310;28;97930;-71
2022/12/01 10:36:08;;;;;;;125.82;48.72;;;;;;;8.06;48.63;102574.53;4922611;28;99138;-71
2022/12/01 10:38:38;;;;;;;127.15;48.72;;;;;;;7.97;48.49;102574.50;4922325;28;99500;-71
2022/12/01 10:41:11;;;;;;;125.78;47.17;;;;;;;8.18;48.36;102577.22;4927697;28;97190;-70
2022/12/01 10:43:42;;;;;;;122.88;49.17;;;;;;;8.26;47.91;102567.59;4928924;28;99339;-70
2022/12/01 10:46:21;;;;;;;123.38;48.35;;;;;;;8.28;47.35;102563.19;4926109;28;99224;-74
2022/12/01 10:48:55;;;;;;;119.00;46.53;;;;;;;8.25;47.99;102557.03;4926177;28;96770;-71
2022/12/01 10:51:23;;;;;;;119.07;47.25;;;;;;;8.18;48.14;102561.41;4922727;28;97313;-72
2022/12/01 10:53:50;;;;;;;128.80;48.10;;;;;;;8.12;48.24;102568.41;4921444;28;99039;-71
2022/12/01 10:56:19;;;;;;;125.95;48.25;;;;;;;8.04;48.02;102563.09;4923257;28;99235;-72
2022/12/01 10:58:48;;;;;;;106.88;44.53;;;;;;;8.28;47.33;102552.63;4921738;28;96915;-70
2022/12/01 11:01:21;;;;;;;111.50;44.88;;;;;;;8.12;47.69;102565.78;4922144;28;97268;-70
2022/12/01 11:03:56;;;;;;;122.15;44.78;;;;;;;8.08;47.69;102562.22;4922788;28;99421;-73
2022/12/01 11:06:25;;;;;;;121.07;46.90;;;;;;;7.88;47.95;102571.81;4920591;28;98818;-71
2022/12/01 11:08:56;;;;;;;109.07;43.92;;;;;;;7.88;48.25;102558.63;4926228;28;97477;-71
2022/12/01 11:11:26;;;;;;;107.93;44.00;;;;;;;7.76;48.53;102559.47;4923741;28;99100;-72
2022/12/01 11:13:54;;;;;;;105.07;43.47;;;;;;;8.01;48.04;102557.81;4919837;28;98991;-72
2022/12/01 11:16:37;;;;;;;111.05;44.58;;;;;;;7.96;47.92;102557.81;4922400;28;99933;-73
2022/12/01 11:19:10;;;;;;;106.28;42.60;;;;;;;7.92;48.03;102556.06;4924287;28;98884;-69
2022/12/01 11:21:46;;;;;;;105.20;44.42;;;;;;;7.79;48.28;102558.63;4918922;28;97270;-71
2022/12/01 11:24:32;;;;;;;108.82;43.70;;;;;;;8.06;47.73;102556.09;4925672;28;99555;-70